createdAt,value
2019-05-29T00:00:16.647Z,99125.55
2019-05-29T00:01:56.205Z,99099.77
2019-05-29T00:03:35.378Z,99081.84
2019-05-29T00:05:14.297Z,99039.50
2019-05-29T00:06:50.311Z,99009.09
2019-05-29T00:08:25.963Z,98972.84
2019-05-29T00:10:06.549Z,98953.20
2019-05-29T00:11:44.895Z,98916.75
2019-05-29T00:13:22.308Z,98900.41
2019-05-29T00:14:58.213Z,98875.84
2019-05-29T00:16:33.970Z,98856.36
2019-05-29T00:18:12.402Z,98836.10
2019-05-29T00:19:50.259Z,98837.50
2019-05-29T00:21:40.330Z,98828.67
2019-05-29T00:23:16.435Z,98825.73
2019-05-29T00:24:53.702Z,98824.55
2019-05-29T00:26:30.027Z,98834.66
2019-05-29T00:28:08.911Z,98840.47
2019-05-29T00:29:45.167Z,98842.20
2019-05-29T00:31:20.584Z,98839.84
2019-05-29T00:32:57.605Z,98851.52
2019-05-29T00:34:32.764Z,98860.59
2019-05-29T00:36:08.607Z,98866.16
2019-05-29T00:37:44.482Z,98872.17
2019-05-29T00:39:20.782Z,98880.70
2019-05-29T00:40:56.244Z,98890.23
2019-05-29T00:42:32.099Z,98887.63
2019-05-29T00:44:09.071Z,98896.77
2019-05-29T00:45:45.099Z,98901.00
2019-05-29T00:47:20.711Z,98899.23
2019-05-29T00:49:04.131Z,98893.32
2019-05-29T00:50:39.770Z,98884.16
2019-05-29T00:52:16.637Z,98882.99
2019-05-29T00:53:51.845Z,98880.38
2019-05-29T00:57:32.278Z,98867.08
2019-05-29T00:59:11.198Z,98865.30
2019-05-29T01:00:46.313Z,98859.60
2019-05-29T01:02:22.406Z,98840.33
2019-05-29T01:03:58.014Z,98819.67
2019-05-29T01:05:33.981Z,98806.03
2019-05-29T01:07:10.196Z,98803.50
2019-05-29T01:08:46.041Z,98790.80
2019-05-29T01:10:21.465Z,98785.47
2019-05-29T01:11:57.324Z,98790.38
2019-05-29T01:13:33.618Z,98777.45
2019-05-29T01:15:09.728Z,98788.38
2019-05-29T01:16:44.790Z,98791.63
2019-05-29T01:18:22.232Z,98797.63
2019-05-29T01:19:57.979Z,98802.86
2019-05-29T01:21:34.293Z,98805.30
2019-05-29T01:23:12.749Z,98813.61
2019-05-29T01:24:49.426Z,98834.56
2019-05-29T01:26:25.047Z,98857.09
2019-05-29T01:28:01.166Z,98862.86
2019-05-29T01:29:36.359Z,98875.25
2019-05-29T01:31:13.534Z,98879.30
2019-05-29T01:32:49.508Z,98892.83
2019-05-29T01:34:25.252Z,98907.83
2019-05-29T01:36:00.450Z,98911.91
2019-05-29T01:37:36.295Z,98916.92
2019-05-29T01:39:12.169Z,98911.00
2019-05-29T01:40:48.390Z,98912.88
2019-05-29T01:42:27.645Z,98915.59
2019-05-29T01:44:03.641Z,98914.34
2019-05-29T01:45:39.110Z,98919.08
2019-05-29T01:47:15.338Z,98921.91
2019-05-29T01:48:50.783Z,98938.71
2019-05-29T01:50:27.934Z,98947.00
2019-05-29T01:52:03.224Z,98959.09
2019-05-29T01:53:38.948Z,98967.30
2019-05-29T01:55:14.204Z,98964.87
2019-05-29T01:56:50.975Z,98965.05
2019-05-29T01:58:28.012Z,98968.27
2019-05-29T02:00:09.224Z,98978.06
2019-05-29T02:01:45.444Z,98977.81
2019-05-29T02:03:21.960Z,98999.31
2019-05-29T02:04:58.094Z,99021.46
2019-05-29T02:06:33.135Z,99050.76
2019-05-29T02:08:09.079Z,99076.72
2019-05-29T02:09:44.945Z,99116.58
2019-05-29T02:11:23.265Z,99133.92
2019-05-29T02:12:58.958Z,99176.39
2019-05-29T02:14:34.993Z,99225.50
2019-05-29T02:16:10.302Z,99236.83
2019-05-29T02:17:46.341Z,99254.67
2019-05-29T02:19:21.903Z,99266.36
2019-05-29T02:20:58.705Z,99280.12
2019-05-29T02:22:33.854Z,99307.16
2019-05-29T02:24:09.923Z,99321.55
2019-05-29T02:25:45.434Z,99337.77
2019-05-29T02:27:21.607Z,99351.13
2019-05-29T02:29:00.100Z,99367.91
2019-05-29T02:30:36.140Z,99380.92
2019-05-29T02:32:13.468Z,99398.45
2019-05-29T02:33:50.110Z,99423.91
2019-05-29T02:35:27.445Z,99454.96
2019-05-29T02:37:04.158Z,99484.27
2019-05-29T02:38:39.579Z,99495.91
2019-05-29T02:40:16.195Z,99516.50
2019-05-29T02:41:52.259Z,99536.95
2019-05-29T02:43:29.979Z,99550.96
2019-05-29T02:45:06.817Z,99591.97
2019-05-29T02:46:42.754Z,99614.47
2019-05-29T02:48:18.244Z,99633.77
2019-05-29T02:49:55.492Z,99651.77
2019-05-29T02:51:31.020Z,99676.83
2019-05-29T02:53:07.047Z,99698.86
2019-05-29T02:54:42.245Z,99715.56
2019-05-29T02:56:20.414Z,99727.63
2019-05-29T02:57:58.114Z,99745.05
2019-05-29T02:59:34.320Z,99764.92
2019-05-29T03:01:09.973Z,99784.79
2019-05-29T03:02:47.311Z,99806.34
2019-05-29T03:04:28.052Z,99824.06
2019-05-29T03:06:04.432Z,99842.59
2019-05-29T03:07:40.472Z,99863.48
2019-05-29T03:09:16.730Z,99881.85
2019-05-29T03:10:51.909Z,99904.19
2019-05-29T03:12:29.400Z,99925.87
2019-05-29T03:14:04.542Z,99938.16
2019-05-29T03:15:43.585Z,99948.88
2019-05-29T03:17:20.539Z,99965.70
2019-05-29T03:18:56.266Z,99978.95
2019-05-29T03:20:32.382Z,99995.64
2019-05-29T03:22:11.123Z,100015.58
2019-05-29T03:23:46.670Z,100039.08
2019-05-29T03:25:22.463Z,100063.50
2019-05-29T03:26:57.708Z,100098.48
2019-05-29T03:28:35.117Z,100122.88
2019-05-29T03:30:13.335Z,100134.78
2019-05-29T03:31:52.153Z,100149.05
2019-05-29T03:33:36.065Z,100168.02
2019-05-29T03:35:07.591Z,100189.47
2019-05-29T03:36:47.782Z,100204.59
2019-05-29T03:38:20.799Z,100209.53
2019-05-29T03:39:55.950Z,100238.45
2019-05-29T03:41:32.763Z,100247.77
2019-05-29T03:43:08.620Z,100268.64
2019-05-29T03:44:44.658Z,100287.39
2019-05-29T03:46:31.171Z,100319.03
2019-05-29T03:47:57.558Z,100345.02
2019-05-29T03:49:35.250Z,100348.34
2019-05-29T03:51:11.519Z,100364.41
2019-05-29T03:52:46.874Z,100367.81
2019-05-29T03:54:22.737Z,100381.35
2019-05-29T03:55:57.910Z,100394.95
2019-05-29T03:57:33.975Z,100408.04
2019-05-29T03:59:10.376Z,100429.23
2019-05-29T04:00:49.555Z,100460.32
2019-05-29T04:02:26.736Z,100482.23
2019-05-29T04:04:02.849Z,100509.97
2019-05-29T04:05:38.196Z,100541.31
2019-05-29T04:07:13.948Z,100571.70
2019-05-29T04:08:49.734Z,100621.75
2019-05-29T04:10:32.977Z,100645.34
2019-05-29T04:12:08.462Z,100672.38
2019-05-29T04:13:43.611Z,100693.76
2019-05-29T04:15:45.104Z,100731.28
2019-05-29T04:17:35.656Z,100749.13
2019-05-29T04:19:11.421Z,100789.37
2019-05-29T04:20:46.761Z,100809.95
2019-05-29T04:22:27.961Z,100838.92
2019-05-29T04:24:04.007Z,100850.27
2019-05-29T04:25:42.759Z,100876.45
2019-05-29T04:27:19.633Z,100896.98
2019-05-29T04:28:55.884Z,100924.16
2019-05-29T04:30:32.063Z,100952.54
2019-05-29T04:32:08.308Z,100960.13
2019-05-29T04:33:43.801Z,100977.70
2019-05-29T04:35:19.506Z,100995.70
2019-05-29T04:36:54.611Z,101021.98
2019-05-29T04:38:31.599Z,101025.45
2019-05-29T04:40:09.573Z,101035.62
2019-05-29T04:41:45.275Z,101052.11
2019-05-29T04:43:22.019Z,101053.03
2019-05-29T04:44:57.750Z,101066.55
2019-05-29T04:46:36.219Z,101084.77
2019-05-29T04:48:12.676Z,101101.66
2019-05-29T04:49:49.510Z,101110.19
2019-05-29T04:51:28.984Z,101125.73
2019-05-29T04:53:04.207Z,101139.03
2019-05-29T04:54:41.118Z,101174.83
2019-05-29T04:56:17.480Z,101201.77
2019-05-29T04:57:53.265Z,101230.16
2019-05-29T04:59:28.822Z,101248.29
2019-05-29T05:01:05.035Z,101229.48
2019-05-29T05:02:40.198Z,101186.27
2019-05-29T05:04:17.151Z,101112.56
2019-05-29T05:05:53.425Z,101004.30
2019-05-29T05:07:29.686Z,100921.47
2019-05-29T05:09:06.399Z,100707.14
2019-05-29T05:10:43.039Z,100488.86
2019-05-29T05:12:20.370Z,100218.27
2019-05-29T05:13:56.588Z,100014.64
2019-05-29T05:15:32.265Z,99799.23
2019-05-29T05:17:08.539Z,99527.09
2019-05-29T05:18:43.734Z,99318.25
2019-05-29T05:20:21.543Z,99100.80
2019-05-29T05:21:56.676Z,98851.06
2019-05-29T05:23:32.560Z,98603.47
2019-05-29T05:25:11.987Z,98425.09
2019-05-29T05:26:49.778Z,98284.54
2019-05-29T05:28:25.761Z,98072.41
2019-05-29T05:30:08.894Z,97885.84
2019-05-29T05:31:44.258Z,97773.07
2019-05-29T05:33:19.353Z,97708.33
2019-05-29T05:34:55.770Z,97657.02
2019-05-29T05:36:35.079Z,97584.70
2019-05-29T05:38:11.595Z,97553.87
2019-05-29T05:39:49.421Z,97542.64
2019-05-29T05:41:30.848Z,97476.99
2019-05-29T05:43:06.514Z,97435.76
2019-05-29T05:44:42.428Z,97442.67
2019-05-29T05:46:18.978Z,97418.69
2019-05-29T05:47:57.851Z,97423.42
2019-05-29T05:49:31.685Z,97438.48
2019-05-29T05:51:07.412Z,97429.50
2019-05-29T05:52:42.729Z,97388.56
2019-05-29T05:54:24.560Z,97390.33
2019-05-29T05:55:57.018Z,97393.75
2019-05-29T05:57:33.594Z,97364.94
2019-05-29T05:59:08.988Z,97355.05
2019-05-29T06:00:45.424Z,97368.80
2019-05-29T06:02:26.445Z,97357.16
2019-05-29T06:04:02.292Z,97358.31
2019-05-29T06:05:38.189Z,97367.42
2019-05-29T06:07:17.512Z,97372.14
2019-05-29T06:08:52.928Z,97385.05
2019-05-29T06:10:28.694Z,97372.30
2019-05-29T06:12:04.803Z,97378.50
2019-05-29T06:13:40.569Z,97377.03
2019-05-29T06:15:17.159Z,97367.66
2019-05-29T06:16:53.120Z,97373.06
2019-05-29T06:18:28.408Z,97360.92
2019-05-29T06:20:05.766Z,97359.95
2019-05-29T06:21:46.649Z,97341.81
2019-05-29T06:23:22.644Z,97341.63
2019-05-29T06:25:02.227Z,97330.67
2019-05-29T06:26:43.356Z,97338.84
2019-05-29T06:28:20.164Z,97342.13
2019-05-29T06:29:58.030Z,97334.78
2019-05-29T06:31:35.576Z,97339.77
2019-05-29T06:33:22.391Z,97354.33
2019-05-29T06:35:06.546Z,97337.60
2019-05-29T06:36:43.765Z,97351.95
2019-05-29T06:38:23.822Z,97342.68
2019-05-29T06:40:00.516Z,97357.64
2019-05-29T06:41:37.779Z,97359.96
2019-05-29T06:43:25.047Z,97362.73
2019-05-29T06:45:03.933Z,97370.69
2019-05-29T06:46:40.500Z,97382.34
2019-05-29T06:48:40.720Z,97363.61
2019-05-29T06:49:59.706Z,97379.25
2019-05-29T06:52:17.217Z,97373.02
2019-05-29T06:53:51.765Z,97383.30
2019-05-29T06:55:28.024Z,97392.17
2019-05-29T06:57:04.377Z,97395.08
2019-05-29T06:58:40.067Z,97391.28
2019-05-29T07:00:34.445Z,97400.48
2019-05-29T07:01:56.167Z,97396.46
2019-05-29T07:03:32.111Z,97395.70
2019-05-29T07:05:07.274Z,97390.19
2019-05-29T07:06:43.434Z,97358.67
2019-05-29T07:08:37.438Z,97347.06
2019-05-29T07:10:00.614Z,97318.87
2019-05-29T07:11:37.085Z,97325.37
2019-05-29T07:13:13.014Z,97335.24
2019-05-29T07:14:48.562Z,97320.91
2019-05-29T07:16:40.931Z,97325.91
2019-05-29T07:18:02.546Z,97316.09
2019-05-29T07:19:48.998Z,97320.79
2019-05-29T07:21:15.865Z,97323.16
2019-05-29T07:22:56.171Z,97326.80
2019-05-29T07:24:43.493Z,97329.31
2019-05-29T07:26:21.007Z,97335.44
2019-05-29T07:27:56.519Z,97334.91
2019-05-29T07:29:33.930Z,97332.75
2019-05-29T07:31:09.565Z,97319.25
2019-05-29T07:32:56.763Z,97332.58
2019-05-29T07:34:24.428Z,97336.19
2019-05-29T07:36:00.607Z,97322.52
2019-05-29T07:37:37.739Z,97326.10
2019-05-29T07:39:14.456Z,97329.46
2019-05-29T07:40:57.982Z,97329.56
2019-05-29T07:42:36.517Z,97332.48
2019-05-29T07:44:18.775Z,97325.94
2019-05-29T07:45:55.601Z,97323.04
2019-05-29T07:47:30.734Z,97326.92
2019-05-29T07:49:11.697Z,97329.59
2019-05-29T07:50:48.424Z,97321.48
2019-05-29T07:52:25.190Z,97323.18
2019-05-29T07:54:01.283Z,97315.81
2019-05-29T07:55:44.736Z,97309.55
2019-05-29T07:57:21.630Z,97317.35
2019-05-29T07:59:03.069Z,97323.48
2019-05-29T08:00:36.066Z,97320.98
2019-05-29T08:02:11.277Z,97305.20
2019-05-29T08:03:47.511Z,97307.85
2019-05-29T08:05:24.915Z,97291.39
2019-05-29T08:07:06.579Z,97279.56
2019-05-29T08:08:43.214Z,97265.45
2019-05-29T08:10:19.520Z,97267.02
2019-05-29T08:11:55.259Z,97249.85
2019-05-29T08:13:33.536Z,97247.05
2019-05-29T08:15:08.737Z,97246.45
2019-05-29T08:16:46.010Z,97234.55
2019-05-29T08:18:23.325Z,97235.66
2019-05-29T08:20:07.134Z,97225.42
2019-05-29T08:21:44.202Z,97224.94
2019-05-29T08:23:20.521Z,97221.70
2019-05-29T08:24:59.593Z,97213.64
2019-05-29T08:26:35.212Z,97219.09
2019-05-29T08:28:16.222Z,97212.59
2019-05-29T08:29:52.411Z,97213.63
2019-05-29T08:31:30.354Z,97211.79
2019-05-29T08:33:05.798Z,97213.98
2019-05-29T08:34:45.279Z,97219.27
2019-05-29T08:36:20.646Z,97221.23
2019-05-29T08:37:56.433Z,97222.31
2019-05-29T08:39:37.074Z,97221.95
2019-05-29T08:41:12.896Z,97231.08
2019-05-29T08:42:55.187Z,97226.27
2019-05-29T08:44:33.245Z,97235.92
2019-05-29T08:46:09.862Z,97235.77
2019-05-29T08:47:49.992Z,97237.05
2019-05-29T08:49:31.440Z,97231.19
2019-05-29T08:51:09.795Z,97230.19
2019-05-29T08:52:50.131Z,97235.26
2019-05-29T08:54:26.609Z,97247.38
2019-05-29T08:56:04.662Z,97243.20
2019-05-29T08:57:39.809Z,97274.73
2019-05-29T08:59:15.670Z,97279.70
2019-05-29T09:00:54.776Z,97277.97
2019-05-29T09:02:31.817Z,97282.97
2019-05-29T09:04:06.659Z,97282.55
2019-05-29T09:05:42.926Z,97285.45
2019-05-29T09:07:19.868Z,97283.39
2019-05-29T09:08:56.253Z,97275.91
2019-05-29T09:10:35.365Z,97286.12
2019-05-29T09:12:12.240Z,97289.45
2019-05-29T09:13:50.036Z,97288.42
2019-05-29T09:15:28.473Z,97284.55
2019-05-29T09:17:03.649Z,97293.36
2019-05-29T09:18:39.410Z,97286.73
2019-05-29T09:20:30.835Z,97288.72
2019-05-29T09:21:52.339Z,97299.96
2019-05-29T09:23:30.492Z,97298.33
2019-05-29T09:25:15.423Z,97299.38
2019-05-29T09:26:53.383Z,97300.23
2019-05-29T09:28:27.207Z,97298.34
2019-05-29T09:30:07.695Z,97293.03
2019-05-29T09:31:43.805Z,97298.13
2019-05-29T09:33:21.991Z,97290.75
2019-05-29T09:34:59.171Z,97295.14
2019-05-29T09:36:47.069Z,97304.16
2019-05-29T09:38:24.962Z,97305.16
2019-05-29T09:40:03.417Z,97309.35
2019-05-29T09:41:41.458Z,97300.66
2019-05-29T09:43:20.475Z,97304.22
2019-05-29T09:44:58.143Z,97297.64
2019-05-29T09:46:33.438Z,97298.19
2019-05-29T09:48:10.004Z,97307.62
2019-05-29T09:49:46.579Z,97307.73
2019-05-29T09:51:27.326Z,97311.11
2019-05-29T09:53:15.070Z,97300.48
2019-05-29T09:54:56.236Z,97312.61
2019-05-29T09:56:33.584Z,97317.05
2019-05-29T09:58:13.947Z,97313.69
2019-05-29T09:59:51.083Z,97313.62
2019-05-29T10:01:30.371Z,97315.42
2019-05-29T10:03:07.937Z,97315.75
2019-05-29T10:04:51.414Z,97319.19
2019-05-29T10:06:29.889Z,97314.83
2019-05-29T10:08:16.942Z,97317.60
2019-05-29T10:10:05.175Z,97315.53
2019-05-29T10:11:51.729Z,97313.98
2019-05-29T10:13:32.880Z,97316.15
2019-05-29T10:15:10.497Z,97321.14
2019-05-29T10:16:56.847Z,97318.67
2019-05-29T10:18:41.402Z,97320.15
2019-05-29T10:20:30.340Z,97319.44
2019-05-29T10:22:18.548Z,97322.34
2019-05-29T10:24:03.992Z,97322.12
2019-05-29T10:25:50.102Z,97321.59
2019-05-29T10:27:54.107Z,97322.34
2019-05-29T10:29:34.303Z,97327.63
2019-05-29T10:31:15.476Z,97326.01
2019-05-29T10:32:58.996Z,97327.09
2019-05-29T10:34:37.105Z,97321.44
2019-05-29T10:36:12.209Z,97326.01
2019-05-29T10:37:50.693Z,97324.30
2019-05-29T10:39:30.733Z,97325.94
2019-05-29T10:41:11.988Z,97319.72
2019-05-29T10:42:51.568Z,97327.13
2019-05-29T10:44:28.283Z,97331.80
2019-05-29T10:46:03.660Z,97320.84
2019-05-29T10:47:43.599Z,97321.97
2019-05-29T10:49:22.337Z,97326.11
2019-05-29T10:51:03.267Z,97324.95
2019-05-29T10:52:44.470Z,97328.39
2019-05-29T10:54:24.533Z,97331.89
2019-05-29T10:56:03.579Z,97321.25
2019-05-29T10:57:52.923Z,97325.04
2019-05-29T10:59:33.730Z,97324.77
2019-05-29T11:01:11.493Z,97326.92
2019-05-29T11:02:48.138Z,97323.50
2019-05-29T11:04:27.277Z,97319.28
2019-05-29T11:06:05.766Z,97316.63
2019-05-29T11:07:45.824Z,97327.67
2019-05-29T11:09:43.837Z,97330.47
2019-05-29T11:11:25.430Z,97328.58
2019-05-29T11:13:01.395Z,97326.55
2019-05-29T11:14:40.033Z,97324.91
2019-05-29T11:16:15.205Z,97323.00
2019-05-29T11:18:04.897Z,97316.02
2019-05-29T11:19:43.151Z,97317.06
2019-05-29T11:21:19.410Z,97310.64
2019-05-29T11:22:57.807Z,97312.70
2019-05-29T11:24:42.850Z,97319.73
2019-05-29T11:26:21.124Z,97315.41
2019-05-29T11:27:56.746Z,97316.30
2019-05-29T11:29:34.470Z,97321.87
2019-05-29T11:31:13.917Z,97322.36
2019-05-29T11:32:57.515Z,97317.78
2019-05-29T11:34:33.037Z,97321.50
2019-05-29T11:36:13.127Z,97309.66
2019-05-29T11:37:50.511Z,97303.08
2019-05-29T11:39:28.354Z,97304.52
2019-05-29T11:41:25.109Z,97307.06
2019-05-29T11:42:47.657Z,97306.62
2019-05-29T11:44:23.487Z,97310.31
2019-05-29T11:46:02.636Z,97310.84
2019-05-29T11:47:40.548Z,97313.14
2019-05-29T11:49:20.403Z,97316.01
2019-05-29T11:50:58.434Z,97315.80
2019-05-29T11:52:50.462Z,97311.63
2019-05-29T11:54:37.576Z,97315.93
2019-05-29T11:56:13.390Z,97321.48
2019-05-29T11:57:57.829Z,97314.26
2019-05-29T11:59:33.713Z,97311.06
2019-05-29T12:01:09.416Z,97318.33
2019-05-29T12:02:48.295Z,97317.42
2019-05-29T12:04:32.699Z,97312.73
2019-05-29T12:06:18.955Z,97311.70
2019-05-29T12:08:06.985Z,97319.84
2019-05-29T12:09:43.037Z,97312.03
2019-05-29T12:11:19.130Z,97319.58
2019-05-29T12:12:55.503Z,97322.98
2019-05-29T12:14:31.104Z,97319.16
2019-05-29T12:16:07.166Z,97318.22
2019-05-29T12:17:57.931Z,97320.48
2019-05-29T12:19:35.189Z,97317.05
2019-05-29T12:21:15.561Z,97306.72
2019-05-29T12:23:16.610Z,97304.97
2019-05-29T12:24:29.366Z,97301.00
2019-05-29T12:26:19.733Z,97298.62
2019-05-29T12:27:42.030Z,97296.31
2019-05-29T12:29:18.175Z,97302.63
2019-05-29T12:30:55.023Z,97301.44
2019-05-29T12:32:31.067Z,97301.06
2019-05-29T12:34:17.785Z,97298.55
2019-05-29T12:35:50.286Z,97297.05
2019-05-29T12:37:29.302Z,97296.05
2019-05-29T12:39:09.197Z,97296.55
2019-05-29T12:40:49.415Z,97296.94
2019-05-29T12:42:25.738Z,97301.55
2019-05-29T12:44:02.204Z,97296.88
2019-05-29T12:45:39.820Z,97301.56
2019-05-29T12:47:29.217Z,97306.03
2019-05-29T12:49:13.469Z,97310.61
2019-05-29T12:51:33.196Z,97308.64
2019-05-29T12:52:53.614Z,97308.78
2019-05-29T12:54:29.695Z,97303.81
2019-05-29T12:56:07.426Z,97305.91
2019-05-29T12:57:48.457Z,97300.05
2019-05-29T12:59:25.719Z,97301.02
2019-05-29T13:01:10.017Z,97298.86
2019-05-29T13:02:48.221Z,97295.75
2019-05-29T13:04:25.629Z,97297.80
2019-05-29T13:06:02.474Z,97304.52
2019-05-29T13:07:38.269Z,97298.00
2019-05-29T13:09:17.799Z,97293.98
2019-05-29T13:10:54.279Z,97296.34
2019-05-29T13:12:39.785Z,97292.68
2019-05-29T13:14:25.354Z,97287.02
2019-05-29T13:16:20.582Z,97290.53
2019-05-29T13:18:02.677Z,97292.39
2019-05-29T13:19:36.726Z,97293.47
2019-05-29T13:21:18.856Z,97283.53
2019-05-29T13:23:05.422Z,97289.41
2019-05-29T13:24:43.246Z,97282.52
2019-05-29T13:26:19.742Z,97281.64
2019-05-29T13:27:59.894Z,97279.08
2019-05-29T13:29:35.798Z,97277.73
2019-05-29T13:31:19.595Z,97283.54
2019-05-29T13:33:02.187Z,97282.79
2019-05-29T13:34:37.045Z,97284.18
2019-05-29T13:36:16.330Z,97287.06
2019-05-29T13:37:52.906Z,97287.36
2019-05-29T13:39:29.964Z,97287.73
2019-05-29T13:41:09.584Z,97284.92
2019-05-29T13:42:48.720Z,97282.21
2019-05-29T13:44:29.161Z,97281.42
2019-05-29T13:46:08.384Z,97282.34
2019-05-29T13:47:43.616Z,97281.61
2019-05-29T13:49:20.636Z,97277.41
2019-05-29T13:50:56.925Z,97275.34
2019-05-29T13:52:36.686Z,97273.69
2019-05-29T13:54:17.928Z,97273.39
2019-05-29T13:55:52.268Z,97274.34
2019-05-29T13:57:31.504Z,97282.55
2019-05-29T13:59:08.401Z,97284.39
2019-05-29T14:00:43.797Z,97278.67
2019-05-29T14:02:19.932Z,97282.76
2019-05-29T14:03:55.627Z,97279.43
2019-05-29T14:05:33.502Z,97283.74
2019-05-29T14:07:08.855Z,97279.84
2019-05-29T14:08:44.865Z,97275.55
2019-05-29T14:10:21.460Z,97275.09
2019-05-29T14:11:58.921Z,97276.77
2019-05-29T14:13:36.355Z,97267.14
2019-05-29T14:15:12.748Z,97272.73
2019-05-29T14:16:51.225Z,97275.89
2019-05-29T14:18:51.257Z,97282.13
2019-05-29T14:20:32.545Z,97280.25
2019-05-29T14:22:11.255Z,97278.77
2019-05-29T14:23:54.362Z,97289.86
2019-05-29T14:25:40.049Z,97283.33
2019-05-29T14:27:35.091Z,97285.52
2019-05-29T14:29:16.102Z,97279.66
2019-05-29T14:30:55.273Z,97280.09
2019-05-29T14:32:31.729Z,97288.70
2019-05-29T14:34:07.571Z,97285.41
2019-05-29T14:35:44.381Z,97282.25
2019-05-29T14:37:19.933Z,97283.45
2019-05-29T14:38:55.606Z,97278.95
2019-05-29T14:40:43.492Z,97289.34
2019-05-29T14:42:30.408Z,97278.63
2019-05-29T14:44:07.935Z,97279.01
2019-05-29T14:45:45.753Z,97278.28
2019-05-29T14:47:21.536Z,97278.07
2019-05-29T14:49:06.278Z,97267.22
2019-05-29T14:50:44.925Z,97278.89
2019-05-29T14:52:29.591Z,97277.96
2019-05-29T14:54:11.004Z,97274.47
2019-05-29T14:55:49.618Z,97275.30
2019-05-29T14:57:27.143Z,97281.43
2019-05-29T14:59:03.229Z,97276.59
2019-05-29T15:00:40.696Z,97288.70
2019-05-29T15:02:23.594Z,97288.17
2019-05-29T15:04:00.398Z,97285.16
2019-05-29T15:05:40.365Z,97286.77
2019-05-29T15:07:15.677Z,97283.27
2019-05-29T15:08:52.007Z,97282.22
2019-05-29T15:10:29.352Z,97286.64
2019-05-29T15:12:06.032Z,97283.87
2019-05-29T15:13:44.981Z,97289.47
2019-05-29T15:15:23.325Z,97285.39
2019-05-29T15:17:00.723Z,97281.53
2019-05-29T15:18:44.542Z,97281.56
2019-05-29T15:20:26.596Z,97284.50
2019-05-29T15:22:04.962Z,97275.00
2019-05-29T15:23:43.794Z,97278.34
2019-05-29T15:25:24.214Z,97282.00
2019-05-29T15:27:03.038Z,97278.69
2019-05-29T15:28:40.752Z,97278.34
2019-05-29T15:30:23.775Z,97281.77
2019-05-29T15:32:02.852Z,97285.55
2019-05-29T15:33:41.112Z,97283.65
2019-05-29T15:35:20.873Z,97282.52
2019-05-29T15:36:59.810Z,97290.10
2019-05-29T15:38:35.391Z,97283.15
2019-05-29T15:40:12.718Z,97287.08
2019-05-29T15:41:48.846Z,97292.86
2019-05-29T15:43:27.387Z,97294.92
2019-05-29T15:45:04.444Z,97294.13
2019-05-29T15:46:42.051Z,97283.52
2019-05-29T15:48:18.154Z,97285.50
2019-05-29T15:49:54.187Z,97291.76
2019-05-29T15:51:29.330Z,97287.09
2019-05-29T15:53:06.980Z,97294.27
2019-05-29T15:54:46.167Z,97296.69
2019-05-29T15:56:27.953Z,97297.48
2019-05-29T15:58:01.343Z,97295.86
2019-05-29T15:59:39.921Z,97304.59
2019-05-29T16:01:43.442Z,97300.09
2019-05-29T16:03:20.614Z,97294.08
2019-05-29T16:05:03.895Z,97297.49
2019-05-29T16:06:45.164Z,97300.76
2019-05-29T16:08:20.071Z,97298.09
2019-05-29T16:10:02.562Z,97300.28
2019-05-29T16:11:38.847Z,97300.78
2019-05-29T16:13:17.276Z,97302.41
2019-05-29T16:14:56.902Z,97303.92
2019-05-29T16:16:35.572Z,97301.47
2019-05-29T16:18:23.011Z,97294.31
2019-05-29T16:19:56.569Z,97297.47
2019-05-29T16:21:32.311Z,97291.52
2019-05-29T16:23:28.314Z,97282.03
2019-05-29T16:24:50.414Z,97286.22
2019-05-29T16:26:30.417Z,97282.02
2019-05-29T16:28:19.355Z,97288.18
2019-05-29T16:30:00.783Z,97285.66
2019-05-29T16:31:42.273Z,97274.63
2019-05-29T16:33:20.135Z,97281.45
2019-05-29T16:35:01.590Z,97293.58
2019-05-29T16:36:43.853Z,97283.83
2019-05-29T16:38:26.506Z,97290.84
2019-05-29T16:40:09.245Z,97292.41
2019-05-29T16:41:46.704Z,97291.20
2019-05-29T16:43:29.344Z,97286.88
2019-05-29T16:45:09.135Z,97296.81
2019-05-29T16:46:53.324Z,97300.26
2019-05-29T16:48:39.043Z,97295.28
2019-05-29T16:50:23.126Z,97295.47
2019-05-29T16:52:07.422Z,97294.06
2019-05-29T16:53:47.927Z,97300.63
2019-05-29T16:55:25.034Z,97294.70
2019-05-29T16:57:01.236Z,97294.06
2019-05-29T16:58:56.583Z,97293.97
2019-05-29T17:00:41.970Z,97296.98
2019-05-29T17:02:38.133Z,97294.47
2019-05-29T17:04:18.272Z,97295.48
2019-05-29T17:05:55.370Z,97297.51
2019-05-29T17:07:30.794Z,97296.43
2019-05-29T17:09:14.406Z,97302.42
2019-05-29T17:10:50.901Z,97302.36
2019-05-29T17:12:30.670Z,97293.81
2019-05-29T17:14:30.457Z,97299.34
2019-05-29T17:16:07.647Z,97294.44
2019-05-29T17:17:43.545Z,97297.69
2019-05-29T17:19:20.672Z,97296.78
2019-05-29T17:20:59.105Z,97308.31
2019-05-29T17:22:35.028Z,97309.54
2019-05-29T17:24:11.468Z,97312.01
2019-05-29T17:25:49.455Z,97311.30
2019-05-29T17:27:29.888Z,97308.58
2019-05-29T17:29:10.852Z,97309.67
2019-05-29T17:30:50.331Z,97307.84
2019-05-29T17:32:30.135Z,97313.62
2019-05-29T17:34:12.422Z,97310.31
2019-05-29T17:35:52.190Z,97304.64
2019-05-29T17:37:32.031Z,97305.07
2019-05-29T17:39:10.748Z,97304.38
2019-05-29T17:40:53.539Z,97308.14
2019-05-29T17:42:27.913Z,97302.94
2019-05-29T17:44:08.684Z,97310.29
2019-05-29T17:45:58.831Z,97311.95
2019-05-29T17:47:40.083Z,97304.27
2019-05-29T17:49:35.203Z,97306.92
2019-05-29T17:51:10.008Z,97306.89
2019-05-29T17:52:45.467Z,97304.66
2019-05-29T17:54:21.811Z,97313.13
2019-05-29T17:56:00.511Z,97311.36
2019-05-29T17:57:36.648Z,97316.47
2019-05-29T17:59:11.816Z,97316.19
2019-05-29T18:00:53.278Z,97313.84
2019-05-29T18:02:50.819Z,97313.11
2019-05-29T18:04:10.714Z,97316.36
2019-05-29T18:05:48.035Z,97323.11
2019-05-29T18:07:24.779Z,97325.41
2019-05-29T18:09:11.066Z,97321.13
2019-05-29T18:10:46.464Z,97323.20
2019-05-29T18:12:25.089Z,97324.05
2019-05-29T18:14:07.574Z,97319.35
2019-05-29T18:15:43.260Z,97324.07
2019-05-29T18:17:23.748Z,97322.94
2019-05-29T18:19:03.021Z,97322.23
2019-05-29T18:20:39.067Z,97322.66
2019-05-29T18:22:25.766Z,97321.81
2019-05-29T18:24:08.287Z,97325.15
2019-05-29T18:26:08.844Z,97331.30
2019-05-29T18:27:45.443Z,97325.97
2019-05-29T18:29:26.252Z,97323.88
2019-05-29T18:31:15.370Z,97325.80
2019-05-29T18:33:11.216Z,97325.59
2019-05-29T18:34:51.787Z,97325.73
2019-05-29T18:36:27.460Z,97327.73
2019-05-29T18:38:04.188Z,97328.35
2019-05-29T18:39:40.084Z,97327.97
2019-05-29T18:41:16.181Z,97322.80
2019-05-29T18:42:58.322Z,97324.57
2019-05-29T18:44:36.463Z,97314.27
2019-05-29T18:46:18.397Z,97318.37
2019-05-29T18:47:59.163Z,97320.97
2019-05-29T18:49:40.024Z,97326.91
2019-05-29T18:51:20.443Z,97336.19
2019-05-29T18:52:55.743Z,97324.55
2019-05-29T18:54:34.997Z,97327.28
2019-05-29T18:56:10.767Z,97331.85
2019-05-29T18:57:48.624Z,97335.19
2019-05-29T18:59:25.481Z,97336.06
2019-05-29T19:01:05.354Z,97337.22
2019-05-29T19:02:46.878Z,97341.73
2019-05-29T19:04:25.548Z,97342.98
2019-05-29T19:06:04.272Z,97334.64
2019-05-29T19:07:41.242Z,97340.50
2019-05-29T19:09:19.336Z,97349.45
2019-05-29T19:11:00.222Z,97349.18
2019-05-29T19:12:52.846Z,97354.23
2019-05-29T19:14:40.623Z,97354.09
2019-05-29T19:16:19.849Z,97358.36
2019-05-29T19:18:10.789Z,97355.89